createdAt,value
2023-04-14T00:01:17.737Z,1.00
2023-04-14T00:03:46.976Z,1.00
2023-04-14T00:06:15.778Z,1.00
2023-04-14T00:08:44.477Z,1.00
2023-04-14T00:11:13.083Z,1.00
2023-04-14T00:13:41.908Z,1.00
2023-04-14T00:16:12.737Z,1.00
2023-04-14T00:18:41.757Z,1.00
2023-04-14T00:21:10.458Z,1.00
2023-04-14T00:23:39.096Z,1.00
2023-04-14T00:26:07.688Z,1.00
2023-04-14T00:28:36.472Z,1.00
2023-04-14T00:31:05.102Z,1.00
2023-04-14T00:33:35.527Z,1.00
2023-04-14T00:36:04.443Z,1.00
2023-04-14T00:38:33.109Z,1.00
2023-04-14T00:41:01.774Z,1.00
2023-04-14T00:43:30.284Z,1.00
2023-04-14T00:46:01.222Z,1.00
2023-04-14T00:48:37.255Z,1.00
2023-04-14T00:51:13.072Z,1.00
2023-04-14T00:53:59.120Z,1.00
2023-04-14T00:56:31.770Z,1.00
2023-04-14T00:59:02.601Z,1.00
2023-04-14T01:01:31.907Z,1.00
2023-04-14T01:04:01.011Z,1.00
2023-04-14T01:06:31.101Z,1.00
2023-04-14T01:09:00.853Z,1.00
2023-04-14T01:11:33.449Z,1.00
2023-04-14T01:14:10.496Z,1.00
2023-04-14T01:16:45.484Z,1.00
2023-04-14T01:19:31.421Z,1.00
2023-04-14T01:22:06.945Z,1.00
2023-04-14T01:24:52.926Z,1.00
2023-04-14T01:27:36.064Z,1.00
2023-04-14T01:30:26.279Z,1.00
2023-04-14T01:32:59.820Z,1.00
2023-04-14T01:35:35.085Z,1.00
2023-04-14T01:38:09.982Z,1.00
2023-04-14T01:40:41.322Z,1.00
2023-04-14T01:43:13.080Z,1.00
2023-04-14T01:45:48.544Z,1.00
2023-04-14T01:48:19.302Z,1.00
2023-04-14T01:50:49.478Z,1.00
2023-04-14T01:53:20.958Z,1.00
2023-04-14T01:55:51.850Z,1.00
2023-04-14T01:58:22.072Z,1.00
2023-04-14T02:00:52.988Z,1.00
2023-04-14T02:03:24.145Z,1.00
2023-04-14T02:05:55.544Z,1.00
2023-04-14T02:08:25.827Z,1.00
2023-04-14T02:10:56.729Z,1.00
2023-04-14T02:13:27.315Z,1.00
2023-04-14T02:15:59.064Z,1.00
2023-04-14T02:18:31.556Z,1.00
2023-04-14T02:21:02.662Z,1.00
2023-04-14T02:23:32.314Z,1.00
2023-04-14T02:26:07.422Z,1.00
2023-04-14T02:28:42.790Z,1.00
2023-04-14T02:31:14.259Z,1.00
2023-04-14T02:33:46.923Z,1.00
2023-04-14T02:36:19.469Z,1.00
2023-04-14T02:38:53.623Z,1.00
2023-04-14T02:41:29.491Z,1.00
2023-04-14T02:44:05.336Z,1.00
2023-04-14T02:46:38.699Z,1.00
2023-04-14T02:49:13.069Z,1.00
2023-04-14T02:51:45.164Z,1.00
2023-04-14T02:54:15.492Z,1.00
2023-04-14T02:56:48.029Z,1.00
2023-04-14T02:59:18.654Z,1.00
2023-04-14T03:02:06.110Z,1.00
2023-04-14T03:04:41.157Z,1.00
2023-04-14T03:07:18.971Z,1.00
2023-04-14T03:09:49.540Z,1.00
2023-04-14T03:12:20.486Z,1.00
2023-04-14T03:14:49.810Z,1.00
2023-04-14T03:17:21.324Z,1.80
2023-04-14T03:19:53.939Z,3.20
2023-04-14T03:22:24.645Z,5.50
2023-04-14T03:24:57.271Z,10.90
2023-04-14T03:27:28.094Z,11.80
2023-04-14T03:30:01.523Z,10.80
2023-04-14T03:32:39.726Z,11.90
2023-04-14T03:35:13.093Z,11.40
2023-04-14T03:37:42.698Z,11.20
2023-04-14T03:40:12.730Z,8.90
2023-04-14T03:42:44.918Z,8.40
2023-04-14T03:45:17.182Z,10.50
2023-04-14T03:47:47.077Z,17.00
2023-04-14T03:50:21.285Z,17.60
2023-04-14T03:52:52.825Z,16.70
2023-04-14T03:55:21.632Z,17.50
2023-04-14T03:57:51.662Z,20.60
2023-04-14T04:00:22.008Z,25.00
2023-04-14T04:02:52.019Z,28.90
2023-04-14T04:05:25.319Z,29.50
2023-04-14T04:07:56.825Z,26.10
2023-04-14T04:10:26.001Z,25.50
2023-04-14T04:12:57.111Z,27.10
2023-04-14T04:15:26.429Z,27.10
2023-04-14T04:17:56.121Z,25.90
2023-04-14T04:20:27.869Z,24.40
2023-04-14T04:22:59.322Z,25.30
2023-04-14T04:25:28.140Z,20.60
2023-04-14T04:28:07.590Z,17.00
2023-04-14T04:30:41.322Z,16.70
2023-04-14T04:33:11.930Z,17.80
2023-04-14T04:35:43.131Z,20.90
2023-04-14T04:38:12.524Z,23.10
2023-04-14T04:40:45.016Z,22.30
2023-04-14T04:43:20.369Z,27.50
2023-04-14T04:46:10.248Z,33.00
2023-04-14T04:48:38.896Z,32.70
2023-04-14T04:51:09.934Z,40.10
2023-04-14T04:53:38.490Z,39.90
2023-04-14T04:56:08.048Z,33.90
2023-04-14T04:58:36.670Z,25.60
2023-04-14T05:01:09.495Z,19.30
2023-04-14T05:03:38.230Z,17.80
2023-04-14T05:06:08.747Z,17.80
2023-04-14T05:08:37.530Z,18.50
2023-04-14T05:11:09.473Z,20.70
2023-04-14T05:13:38.182Z,23.90
2023-04-14T05:16:08.268Z,22.70
2023-04-14T05:18:37.884Z,13.60
2023-04-14T05:21:09.670Z,1.00
2023-04-14T05:24:38.414Z,1.00
2023-04-14T05:27:14.284Z,1.00
2023-04-14T05:29:43.586Z,1.00
2023-04-14T05:32:14.609Z,1.00
2023-04-14T05:34:43.549Z,1.00
2023-04-14T05:37:13.553Z,1.00
2023-04-14T05:39:42.094Z,1.00
2023-04-14T05:42:10.727Z,1.00
2023-04-14T05:44:39.308Z,1.00
2023-04-14T05:47:07.944Z,1.00
2023-04-14T05:49:36.587Z,1.00
2023-04-14T05:52:05.259Z,1.00
2023-04-14T05:54:35.499Z,1.00
2023-04-14T05:57:04.352Z,1.00
2023-04-14T05:59:33.106Z,1.00
2023-04-14T06:02:05.514Z,1.00
2023-04-14T06:04:34.386Z,1.00
2023-04-14T06:07:04.085Z,1.00
2023-04-14T06:09:32.913Z,1.00
2023-04-14T06:12:03.048Z,1.00
2023-04-14T06:14:31.740Z,1.00
2023-04-14T06:17:00.473Z,1.00
2023-04-14T06:19:29.346Z,1.00
2023-04-14T06:21:57.960Z,1.00
2023-04-14T06:24:26.609Z,1.00
2023-04-14T06:26:55.114Z,1.00
2023-04-14T06:29:25.267Z,1.00
2023-04-14T06:31:55.035Z,1.00
2023-04-14T06:34:23.944Z,1.00
2023-04-14T06:36:53.114Z,1.00
2023-04-14T06:39:22.090Z,1.00
2023-04-14T06:41:50.838Z,1.00
2023-04-14T06:44:19.658Z,1.00
2023-04-14T06:46:49.745Z,1.00
2023-04-14T06:49:19.966Z,1.00
2023-04-14T06:51:48.493Z,1.00
2023-04-14T06:54:16.968Z,1.00
2023-04-14T06:56:45.718Z,1.00
2023-04-14T06:59:14.626Z,1.00
2023-04-14T07:01:43.512Z,1.00
2023-04-14T07:04:15.626Z,1.00
2023-04-14T07:06:44.346Z,1.00
2023-04-14T07:09:13.025Z,1.00
2023-04-14T07:11:42.116Z,1.00
2023-04-14T07:14:10.549Z,1.00
2023-04-14T07:16:39.105Z,1.00
2023-04-14T07:19:08.749Z,1.00
2023-04-14T07:21:39.003Z,1.00
2023-04-14T07:24:08.176Z,1.00
2023-04-14T07:26:37.010Z,1.00
2023-04-14T07:29:05.815Z,1.00
2023-04-14T07:31:35.854Z,99.90
2023-04-14T07:34:04.564Z,99.90
2023-04-14T07:36:33.523Z,99.90
2023-04-14T07:39:04.009Z,99.90
2023-04-14T07:41:32.810Z,99.90
2023-04-14T07:44:01.760Z,99.90
2023-04-14T07:46:31.680Z,99.90
2023-04-14T07:49:00.578Z,99.90
2023-04-14T07:51:29.312Z,99.90
2023-04-14T07:53:57.920Z,99.90
2023-04-14T07:56:28.142Z,99.90
2023-04-14T07:58:56.783Z,99.90
2023-04-14T08:01:25.483Z,99.90
2023-04-14T08:03:54.379Z,99.90
2023-04-14T08:06:23.386Z,1.00
2023-04-14T08:08:52.233Z,1.00
2023-04-14T08:11:21.117Z,1.00
2023-04-14T08:13:53.020Z,1.00
2023-04-14T08:16:22.724Z,1.00
2023-04-14T08:18:51.844Z,1.00
2023-04-14T08:21:20.620Z,1.00
2023-04-14T08:23:49.352Z,99.90
2023-04-14T08:26:18.025Z,99.90
2023-04-14T08:28:47.134Z,99.90
2023-04-14T08:31:17.321Z,99.90
2023-04-14T08:33:45.956Z,99.90
2023-04-14T08:36:14.849Z,99.90
2023-04-14T08:38:43.565Z,99.90
2023-04-14T08:41:15.848Z,99.90
2023-04-14T08:43:45.105Z,99.90
2023-04-14T08:46:16.021Z,99.90
2023-04-14T08:48:48.362Z,99.90
2023-04-14T08:51:28.203Z,99.90
2023-04-14T08:53:58.319Z,99.90
2023-04-14T08:56:38.395Z,99.90
2023-04-14T08:59:08.863Z,99.90
2023-04-14T09:01:39.488Z,99.90
2023-04-14T09:04:10.438Z,99.90
2023-04-14T09:06:39.204Z,99.90
2023-04-14T09:09:08.718Z,99.90
2023-04-14T09:11:38.817Z,99.90
2023-04-14T09:14:07.876Z,99.90
2023-04-14T09:16:36.922Z,99.90
2023-04-14T09:19:07.615Z,99.90
2023-04-14T09:21:52.475Z,99.90
2023-04-14T09:24:30.316Z,99.90
2023-04-14T09:27:03.582Z,99.90
2023-04-14T09:29:59.639Z,99.90
2023-04-14T09:32:28.565Z,99.90
2023-04-14T09:34:58.487Z,99.90
2023-04-14T09:37:28.847Z,99.90
2023-04-14T09:39:57.688Z,99.90
2023-04-14T09:42:39.672Z,99.90
2023-04-14T09:45:09.652Z,99.90
2023-04-14T09:47:38.349Z,99.90
2023-04-14T09:50:08.121Z,99.90
2023-04-14T09:52:44.710Z,99.90
2023-04-14T09:55:14.728Z,99.90
2023-04-14T09:57:44.550Z,99.90
2023-04-14T10:00:24.323Z,99.90
2023-04-14T10:02:56.518Z,99.90
2023-04-14T10:05:29.301Z,99.90
2023-04-14T10:08:05.684Z,99.90
2023-04-14T10:10:34.313Z,99.90
2023-04-14T10:13:03.300Z,99.90
2023-04-14T10:15:32.585Z,99.90
2023-04-14T10:18:01.574Z,99.90
2023-04-14T10:20:30.814Z,99.90
2023-04-14T10:23:00.174Z,99.90
2023-04-14T10:25:32.115Z,99.90
2023-04-14T10:28:01.387Z,99.90
2023-04-14T10:30:30.217Z,99.90
2023-04-14T10:32:58.970Z,99.90
2023-04-14T10:35:27.818Z,99.90
2023-04-14T10:37:56.477Z,99.90
2023-04-14T10:40:25.178Z,99.90
2023-04-14T10:42:57.910Z,99.90
2023-04-14T10:45:26.516Z,99.90
2023-04-14T10:47:56.949Z,99.90
2023-04-14T10:50:26.075Z,99.90
2023-04-14T10:52:56.823Z,99.90
2023-04-14T10:55:28.083Z,99.90
2023-04-14T10:58:06.572Z,99.90
2023-04-14T11:01:01.081Z,99.90
2023-04-14T11:04:23.935Z,99.90
2023-04-14T11:06:55.737Z,99.90
2023-04-14T11:09:33.583Z,99.90
2023-04-14T11:12:53.608Z,99.90
2023-04-14T11:15:24.055Z,99.90
2023-04-14T11:17:52.807Z,99.90
2023-04-14T11:20:22.844Z,99.90
2023-04-14T11:22:53.034Z,99.90
2023-04-14T11:25:24.899Z,99.90
2023-04-14T11:27:54.179Z,99.90
2023-04-14T11:30:24.220Z,99.90
2023-04-14T11:32:54.871Z,98.30
2023-04-14T11:35:25.533Z,98.20
2023-04-14T11:37:56.007Z,97.80
2023-04-14T11:40:26.628Z,97.50
2023-04-14T11:42:57.523Z,98.00
2023-04-14T11:45:31.196Z,98.10
2023-04-14T11:48:01.361Z,97.00
2023-04-14T11:50:32.713Z,97.50
2023-04-14T11:53:03.042Z,97.70
2023-04-14T11:55:32.007Z,97.30
2023-04-14T11:58:00.700Z,97.40
2023-04-14T12:00:30.881Z,97.40
2023-04-14T12:03:03.450Z,97.80
2023-04-14T12:05:33.952Z,97.50
2023-04-14T12:08:03.635Z,97.20
2023-04-14T12:10:33.494Z,97.60
2023-04-14T12:13:03.362Z,96.50
2023-04-14T12:15:42.789Z,95.90
2023-04-14T12:18:14.016Z,95.50
2023-04-14T12:20:43.847Z,95.50
2023-04-14T12:23:12.727Z,95.80
2023-04-14T12:25:41.831Z,95.40
2023-04-14T12:28:10.996Z,95.50
2023-04-14T12:30:51.510Z,95.50
2023-04-14T12:33:24.379Z,96.10
2023-04-14T12:35:53.777Z,95.50
2023-04-14T12:38:28.177Z,96.10
2023-04-14T12:40:56.974Z,95.40
2023-04-14T12:43:31.550Z,95.60
2023-04-14T12:46:00.708Z,95.50
2023-04-14T12:48:45.275Z,96.10
2023-04-14T12:51:15.295Z,96.50
2023-04-14T12:53:44.823Z,96.30
2023-04-14T12:56:14.885Z,96.30
2023-04-14T12:58:46.906Z,96.50
2023-04-14T13:01:17.799Z,96.50
2023-04-14T13:03:50.582Z,95.60
2023-04-14T13:06:21.131Z,95.40
2023-04-14T13:08:51.296Z,95.50
2023-04-14T13:11:20.975Z,95.40
2023-04-14T13:13:49.593Z,95.70
2023-04-14T13:16:21.014Z,96.20
2023-04-14T13:18:51.369Z,96.00
2023-04-14T13:21:19.920Z,96.60
2023-04-14T13:23:48.513Z,97.00
2023-04-14T13:26:17.097Z,97.60
2023-04-14T13:28:46.160Z,96.30
2023-04-14T13:31:18.617Z,95.40
2023-04-14T13:33:47.349Z,95.30
2023-04-14T13:36:18.658Z,94.10
2023-04-14T13:39:42.164Z,94.00
2023-04-14T13:42:11.079Z,94.10
2023-04-14T13:44:39.759Z,93.30
2023-04-14T13:47:10.882Z,91.70
2023-04-14T13:49:39.534Z,91.20
2023-04-14T13:52:09.956Z,91.40
2023-04-14T13:54:38.647Z,91.40
2023-04-14T13:57:08.245Z,91.90
2023-04-14T13:59:36.885Z,92.10
2023-04-14T14:02:05.763Z,92.50
2023-04-14T14:04:40.076Z,92.70
2023-04-14T14:07:16.066Z,93.00
2023-04-14T14:09:45.899Z,92.70
2023-04-14T14:12:14.806Z,92.90
2023-04-14T14:14:43.579Z,92.70
2023-04-14T14:17:12.304Z,93.00
2023-04-14T14:19:46.171Z,94.20
2023-04-14T14:22:16.466Z,95.50
2023-04-14T14:24:45.256Z,97.20
2023-04-14T14:27:14.059Z,98.90
2023-04-14T14:29:43.059Z,99.90
2023-04-14T14:32:12.219Z,99.90
2023-04-14T14:34:41.106Z,99.90
2023-04-14T14:37:13.289Z,99.90
2023-04-14T14:39:43.713Z,99.90
2023-04-14T14:43:07.427Z,99.90
2023-04-14T14:45:36.043Z,99.90
2023-04-14T14:48:05.345Z,99.90
2023-04-14T14:50:33.960Z,99.90
2023-04-14T14:53:02.362Z,99.90
2023-04-14T14:55:32.427Z,62.30
2023-04-14T14:58:01.193Z,1.00
2023-04-14T15:00:29.754Z,1.00
2023-04-14T15:02:58.595Z,1.00
2023-04-14T15:05:27.725Z,1.00
2023-04-14T15:07:56.322Z,1.00
2023-04-14T15:10:25.702Z,1.00
2023-04-14T15:12:56.285Z,1.00
2023-04-14T15:15:24.846Z,1.00
2023-04-14T15:17:53.445Z,1.00
2023-04-14T15:20:23.259Z,1.00
2023-04-14T15:22:51.842Z,1.00
2023-04-14T15:25:48.069Z,1.00
2023-04-14T15:28:20.263Z,1.00
2023-04-14T15:30:50.854Z,1.00
2023-04-14T15:33:19.312Z,1.00
2023-04-14T15:35:47.974Z,1.00
2023-04-14T15:38:16.580Z,1.00
2023-04-14T15:41:40.977Z,1.00
2023-04-14T15:44:11.172Z,1.00
2023-04-14T15:46:39.827Z,1.00
2023-04-14T15:49:08.445Z,1.00
2023-04-14T15:51:37.036Z,1.00
2023-04-14T15:54:06.275Z,99.90
2023-04-14T15:56:35.659Z,1.00
2023-04-14T15:59:04.400Z,1.00
2023-04-14T16:02:50.481Z,99.90
2023-04-14T16:05:21.792Z,99.90
2023-04-14T16:07:52.103Z,99.90
2023-04-14T16:10:20.817Z,99.90
2023-04-14T16:12:50.562Z,99.90
2023-04-14T16:15:19.258Z,99.90
2023-04-14T16:17:48.251Z,99.90
2023-04-14T16:20:18.464Z,99.90
2023-04-14T16:22:49.427Z,99.90
2023-04-14T16:25:18.344Z,99.90
2023-04-14T16:27:47.142Z,99.90
2023-04-14T16:30:16.822Z,99.90
2023-04-14T16:32:45.742Z,99.90
2023-04-14T16:35:14.513Z,99.90
2023-04-14T16:37:43.056Z,99.90
2023-04-14T16:40:13.889Z,99.90
2023-04-14T16:42:42.413Z,99.90
2023-04-14T16:45:11.805Z,99.90
2023-04-14T16:47:40.622Z,99.90
2023-04-14T16:50:09.850Z,99.90
2023-04-14T16:52:38.457Z,99.90
2023-04-14T16:55:59.804Z,99.90
2023-04-14T16:58:29.747Z,1.00
2023-04-14T17:00:58.454Z,1.00
2023-04-14T17:03:56.171Z,1.00
2023-04-14T17:06:25.254Z,13.30
2023-04-14T17:09:24.099Z,39.50
2023-04-14T17:11:52.544Z,99.90
2023-04-14T17:14:23.486Z,99.90
2023-04-14T17:16:52.407Z,99.90
2023-04-14T17:19:21.280Z,1.00
2023-04-14T17:21:50.189Z,1.00
2023-04-14T17:24:18.923Z,99.90
2023-04-14T17:26:47.729Z,1.00
2023-04-14T17:29:16.396Z,99.90
2023-04-14T17:31:46.842Z,1.00
2023-04-14T17:34:20.668Z,99.90
2023-04-14T17:36:50.120Z,1.00
2023-04-14T17:39:26.901Z,1.00
2023-04-14T17:41:59.225Z,99.90
2023-04-14T17:44:33.413Z,99.90
2023-04-14T17:47:11.294Z,99.90
2023-04-14T17:49:39.864Z,98.30
2023-04-14T17:52:18.586Z,1.00
2023-04-14T17:54:49.635Z,1.00
2023-04-14T17:57:19.945Z,1.00
2023-04-14T17:59:48.862Z,1.00
2023-04-14T18:02:19.032Z,99.90
2023-04-14T18:04:48.205Z,1.00
2023-04-14T18:07:17.648Z,99.90
2023-04-14T18:09:46.802Z,1.00
2023-04-14T18:12:16.090Z,1.00
2023-04-14T18:14:45.513Z,1.00
2023-04-14T18:17:14.404Z,1.00
2023-04-14T18:19:47.005Z,1.00
2023-04-14T18:22:16.379Z,1.00
2023-04-14T18:24:48.488Z,1.00
2023-04-14T18:29:49.058Z,1.00
2023-04-14T18:32:17.680Z,1.00
2023-04-14T18:34:47.874Z,1.00
2023-04-14T18:37:17.086Z,1.00
2023-04-14T18:39:45.739Z,1.00
2023-04-14T18:42:15.380Z,1.00
2023-04-14T18:44:43.934Z,1.00
2023-04-14T18:47:12.459Z,1.00
2023-04-14T18:49:41.116Z,1.00
2023-04-14T18:52:11.443Z,99.90
2023-04-14T18:54:40.179Z,99.90
2023-04-14T18:57:09.405Z,99.90
2023-04-14T18:59:38.206Z,99.90
2023-04-14T19:02:07.045Z,99.90
2023-04-14T19:04:35.878Z,99.90
2023-04-14T19:07:04.382Z,99.90
2023-04-14T19:09:36.197Z,1.00
2023-04-14T19:12:05.115Z,1.00
2023-04-14T19:14:34.259Z,1.00
2023-04-14T19:17:03.714Z,1.00
2023-04-14T19:19:35.150Z,1.00
2023-04-14T19:22:04.074Z,1.00
2023-04-14T19:24:36.047Z,1.00
2023-04-14T19:27:08.611Z,1.00
2023-04-14T19:29:37.789Z,1.00
2023-04-14T19:32:06.436Z,1.00
2023-04-14T19:34:35.257Z,1.00
2023-04-14T19:37:04.098Z,1.00
2023-04-14T19:39:34.532Z,1.00
2023-04-14T19:42:03.382Z,1.00
2023-04-14T19:44:32.337Z,1.00
2023-04-14T19:47:01.024Z,1.00
2023-04-14T19:49:29.619Z,1.00
2023-04-14T19:51:58.236Z,1.00
2023-04-14T19:54:27.901Z,1.00
2023-04-14T19:56:57.818Z,1.00
2023-04-14T19:59:26.418Z,1.00
2023-04-14T20:01:54.961Z,1.00
2023-04-14T20:04:24.339Z,1.00
2023-04-14T20:06:53.311Z,1.00
2023-04-14T20:09:21.881Z,1.00
2023-04-14T20:11:50.550Z,1.00
2023-04-14T20:14:20.625Z,1.00
2023-04-14T20:16:49.274Z,1.00
2023-04-14T20:19:17.872Z,1.00
2023-04-14T20:21:46.368Z,1.00
2023-04-14T20:24:15.142Z,1.00
2023-04-14T20:26:45.105Z,1.00
2023-04-14T20:29:14.071Z,1.00
2023-04-14T20:31:44.382Z,1.00
2023-04-14T20:34:13.502Z,1.00
2023-04-14T20:36:44.970Z,1.00
2023-04-14T20:39:13.559Z,1.00
2023-04-14T20:41:42.205Z,1.00
2023-04-14T20:44:11.042Z,1.00
2023-04-14T20:46:39.771Z,1.00
2023-04-14T20:49:10.040Z,1.00
2023-04-14T20:51:39.602Z,1.00
2023-04-14T20:54:08.730Z,1.00
2023-04-14T20:56:37.434Z,1.00
2023-04-14T20:59:06.057Z,1.00
2023-04-14T21:01:35.013Z,1.00
2023-04-14T21:04:03.857Z,1.00
2023-04-14T21:06:34.364Z,1.00
2023-04-14T21:09:03.147Z,1.00
2023-04-14T21:11:31.990Z,1.00
2023-04-14T21:15:40.614Z,1.00
2023-04-14T21:16:49.331Z,1.00
2023-04-14T21:19:19.545Z,1.00
2023-04-14T21:21:49.561Z,1.00
2023-04-14T21:25:08.568Z,1.00
2023-04-14T21:27:37.210Z,1.00
2023-04-14T21:30:06.755Z,1.00
2023-04-14T21:32:35.505Z,1.00
2023-04-14T21:35:04.184Z,1.00
2023-04-14T21:37:34.238Z,1.00
2023-04-14T21:40:06.328Z,1.00
2023-04-14T21:42:35.058Z,1.00
2023-04-14T21:45:06.276Z,1.00
2023-04-14T21:47:35.103Z,1.00
2023-04-14T21:50:03.808Z,1.00
2023-04-14T21:52:34.147Z,1.00
2023-04-14T21:55:03.114Z,1.00
2023-04-14T21:57:44.431Z,1.00
2023-04-14T22:00:50.850Z,1.00
2023-04-14T22:03:19.757Z,1.00
2023-04-14T22:05:48.680Z,1.00
2023-04-14T22:08:18.778Z,1.00
2023-04-14T22:10:48.544Z,1.00
2023-04-14T22:13:17.108Z,1.00
2023-04-14T22:15:45.933Z,1.00
2023-04-14T22:18:14.620Z,1.00
2023-04-14T22:20:43.414Z,1.00
2023-04-14T22:23:12.414Z,1.00
2023-04-14T22:25:42.744Z,1.00
2023-04-14T22:28:11.466Z,1.00
2023-04-14T22:30:40.153Z,1.00
2023-04-14T22:33:08.869Z,1.00
2023-04-14T22:35:37.521Z,1.00
2023-04-14T22:38:06.200Z,1.00
2023-04-14T22:40:34.737Z,1.00
2023-04-14T22:43:08.974Z,1.00
2023-04-14T22:45:38.241Z,1.00
2023-04-14T22:48:08.879Z,1.00
2023-04-14T22:50:37.601Z,1.00
2023-04-14T22:53:06.866Z,1.00
2023-04-14T22:55:35.521Z,1.00
2023-04-14T22:58:05.557Z,1.00
2023-04-14T23:00:34.507Z,1.00
2023-04-14T23:03:03.285Z,1.00
2023-04-14T23:05:32.031Z,1.00
2023-04-14T23:08:00.679Z,1.00
2023-04-14T23:10:29.347Z,1.00
2023-04-14T23:12:58.207Z,1.00
2023-04-14T23:15:28.413Z,1.00
2023-04-14T23:17:57.073Z,1.00
2023-04-14T23:20:25.684Z,1.00
2023-04-14T23:22:54.231Z,1.00
2023-04-14T23:25:22.811Z,1.00
2023-04-14T23:27:51.608Z,1.00
2023-04-14T23:30:20.631Z,1.00
2023-04-14T23:32:50.802Z,1.00
2023-04-14T23:35:19.580Z,1.00
2023-04-14T23:37:48.223Z,1.00
2023-04-14T23:40:16.918Z,1.00
2023-04-14T23:42:45.786Z,1.00
2023-04-14T23:45:14.775Z,1.00
2023-04-14T23:47:43.401Z,1.00
2023-04-14T23:50:13.508Z,1.00
2023-04-14T23:52:42.784Z,1.00
2023-04-14T23:55:11.402Z,1.00
2023-04-14T23:57:40.740Z,1.00
